Time;durP1;ratioP1;P1;durP2;ratioP2;P2;SDS_P1;SDS_P2;PMS_P1;PMS_P2;Temp;Humidity;BMP_temperature;BMP_pressure;BME280_temperature;BME280_humidity;BME280_pressure;Samples;Min_cycle;Max_cycle;Signal;HPM_P1;HPM_P2
2022/09/16 00:00:15;;;;;;;4.32;1.75;;;14.10;99.90;;;;;;5000848;28;25058;-75
2022/09/16 00:02:41;;;;;;;6.40;1.60;;;14.00;99.90;;;;;;5014384;28;25053;-73
2022/09/16 00:05:07;;;;;;;5.40;1.30;;;13.90;99.90;;;;;;5020417;28;25086;-74
2022/09/16 00:07:33;;;;;;;4.40;1.30;;;13.90;99.90;;;;;;5016479;28;25050;-73
2022/09/16 00:09:59;;;;;;;11.75;1.80;;;13.90;99.90;;;;;;5019440;28;25061;-73
2022/09/16 00:12:24;;;;;;;2.90;1.10;;;13.90;99.90;;;;;;5017058;28;25153;-73
2022/09/16 00:14:53;;;;;;;4.03;1.55;;;14.00;99.90;;;;;;5003515;28;25085;-74
2022/09/16 00:17:19;;;;;;;7.30;2.03;;;14.00;99.90;;;;;;4994899;28;25075;-73
2022/09/16 00:19:45;;;;;;;6.97;1.42;;;14.00;99.90;;;;;;4990998;28;25065;-74
2022/09/16 00:22:11;;;;;;;6.85;1.80;;;13.90;99.90;;;;;;4992940;28;25088;-74
2022/09/16 00:24:37;;;;;;;4.80;1.40;;;13.80;99.90;;;;;;4994888;28;25069;-73
2022/09/16 00:27:02;;;;;;;3.38;1.60;;;13.80;99.90;;;;;;4995617;28;25095;-73
2022/09/16 00:29:28;;;;;;;5.32;1.42;;;13.80;99.90;;;;;;4986330;28;25123;-73
2022/09/16 00:31:54;;;;;;;4.88;1.35;;;13.80;99.90;;;;;;4987868;28;25078;-74
2022/09/16 00:34:19;;;;;;;2.67;1.13;;;13.80;99.90;;;;;;4989159;28;25076;-73
2022/09/16 00:36:45;;;;;;;6.28;1.30;;;13.70;99.90;;;;;;4990535;28;25072;-74
2022/09/16 00:39:11;;;;;;;5.28;1.30;;;13.70;99.90;;;;;;4999081;28;25063;-74
2022/09/16 00:41:36;;;;;;;2.15;0.93;;;13.80;99.90;;;;;;4988776;28;25054;-74
2022/09/16 00:44:26;;;;;;;2.75;1.17;;;13.80;99.90;;;;;;4999997;28;25053;-73
2022/09/16 00:46:52;;;;;;;2.97;1.48;;;13.90;99.90;;;;;;4999444;28;25079;-73
2022/09/16 00:49:26;;;;;;;3.45;1.30;;;13.90;99.90;;;;;;4991293;28;25062;-74
2022/09/16 00:51:56;;;;;;;3.90;1.23;;;14.00;99.90;;;;;;4997593;28;25081;-74
2022/09/16 00:54:22;;;;;;;6.05;1.45;;;14.10;99.90;;;;;;4991560;28;25081;-74
2022/09/16 00:56:53;;;;;;;3.10;1.42;;;14.00;99.90;;;;;;5002797;28;25080;-74
2022/09/16 00:59:33;;;;;;;9.75;1.33;;;13.90;99.90;;;;;;4985416;28;25064;-74
2022/09/16 01:02:05;;;;;;;4.35;1.00;;;13.90;99.90;;;;;;4990972;28;25144;-73
2022/09/16 01:04:36;;;;;;;3.10;0.70;;;13.80;99.90;;;;;;4994374;28;25070;-73
2022/09/16 01:07:02;;;;;;;0.55;0.50;;;13.70;99.90;;;;;;4997675;28;25123;-72
2022/09/16 01:09:29;;;;;;;3.13;0.93;;;13.60;99.90;;;;;;4989822;28;25139;-74
2022/09/16 01:11:55;;;;;;;4.32;1.17;;;13.70;99.90;;;;;;4995329;28;25164;-74
2022/09/16 01:17:23;;;;;;;8.93;1.02;;;13.60;99.90;;;;;;4988346;28;25141;-75
2022/09/16 01:20:07;;;;;;;5.78;0.90;;;13.60;99.90;;;;;;4980563;28;25164;-74
2022/09/16 01:22:59;;;;;;;4.78;1.20;;;13.70;99.90;;;;;;4998273;28;25084;-74
2022/09/16 01:25:43;;;;;;;3.03;0.80;;;13.70;99.90;;;;;;4981385;28;25060;-74
2022/09/16 01:28:32;;;;;;;8.90;1.13;;;13.80;99.90;;;;;;4992210;28;25091;-75
2022/09/16 01:31:40;;;;;;;4.03;0.60;;;13.90;99.90;;;;;;4988848;28;25076;-75
2022/09/16 01:34:24;;;;;;;5.47;1.15;;;14.00;99.90;;;;;;4978396;28;25071;-75
2022/09/16 01:37:00;;;;;;;3.92;1.00;;;14.00;99.90;;;;;;4994283;28;25146;-74
2022/09/16 01:39:41;;;;;;;2.58;0.75;;;14.00;99.90;;;;;;4989376;28;25104;-73
2022/09/16 01:42:31;;;;;;;5.10;0.90;;;14.00;99.90;;;;;;4998734;28;25101;-73
2022/09/16 01:45:11;;;;;;;1.20;0.82;;;13.90;99.90;;;;;;4986290;28;25074;-74
2022/09/16 01:47:52;;;;;;;3.25;1.08;;;14.00;99.90;;;;;;4996297;28;25161;-74
2022/09/16 01:50:29;;;;;;;3.10;0.95;;;14.00;99.90;;;;;;5000809;28;25074;-73
2022/09/16 01:53:17;;;;;;;4.20;0.75;;;14.00;99.90;;;;;;4992993;28;25096;-73
2022/09/16 01:55:56;;;;;;;4.45;1.20;;;14.00;99.90;;;;;;5005175;28;25058;-73
2022/09/16 01:58:29;;;;;;;7.38;1.00;;;14.00;99.90;;;;;;4994513;28;25083;-74
2022/09/16 02:01:02;;;;;;;2.78;1.10;;;14.00;99.90;;;;;;4994188;28;25058;-74
2022/09/16 02:03:32;;;;;;;5.35;0.68;;;13.90;99.90;;;;;;4995757;28;25074;-74
2022/09/16 02:06:09;;;;;;;1.52;0.70;;;13.70;99.90;;;;;;4993128;28;25071;-74
2022/09/16 02:08:41;;;;;;;6.30;1.25;;;13.60;99.90;;;;;;4998224;28;25142;-73
2022/09/16 02:11:11;;;;;;;1.30;0.65;;;13.70;99.90;;;;;;4997120;28;25077;-73
2022/09/16 02:13:44;;;;;;;3.30;0.73;;;13.70;99.90;;;;;;4980099;28;25142;-73
2022/09/16 02:16:34;;;;;;;2.83;0.40;;;13.50;99.90;;;;;;5001303;28;25056;-75
2022/09/16 02:19:05;;;;;;;5.63;0.65;;;13.50;99.90;;;;;;5003347;28;25153;-74
2022/09/16 02:21:33;;;;;;;4.95;0.45;;;13.40;99.90;;;;;;4998887;28;25093;-73
2022/09/16 02:24:03;;;;;;;2.85;0.68;;;13.40;99.90;;;;;;4993689;28;25066;-74
2022/09/16 02:26:35;;;;;;;0.55;0.35;;;13.60;99.90;;;;;;5000493;28;25084;-74
2022/09/16 02:29:02;;;;;;;;;;;13.60;99.90;;;;;;4986076;28;25053;-73
2022/09/16 02:31:34;;;;;;;3.35;0.43;;;13.80;99.90;;;;;;4987804;28;24073;-73
2022/09/16 02:34:06;;;;;;;1.70;0.60;;;13.90;99.90;;;;;;4976599;28;25079;-73
2022/09/16 02:36:34;;;;;;;3.13;0.70;;;13.90;99.90;;;;;;4993939;28;25054;-74
2022/09/16 02:39:27;;;;;;;0.75;0.40;;;13.90;99.90;;;;;;4988434;28;25069;-75
2022/09/16 02:41:54;;;;;;;3.03;0.60;;;14.00;99.90;;;;;;4992167;28;25099;-75
2022/09/16 02:44:20;;;;;;;3.25;0.40;;;14.00;99.90;;;;;;4997453;28;25152;-74
2022/09/16 02:47:12;;;;;;;3.58;0.65;;;14.00;99.90;;;;;;4987916;28;25150;-74
2022/09/16 02:49:46;;;;;;;2.40;0.52;;;14.10;99.90;;;;;;4990030;28;25140;-74
2022/09/16 02:52:35;;;;;;;1.42;0.50;;;14.20;99.90;;;;;;4994356;28;25055;-75
2022/09/16 02:55:05;;;;;;;2.75;0.73;;;14.10;99.90;;;;;;5001164;28;25079;-75
2022/09/16 02:57:31;;;;;;;0.63;0.40;;;14.20;99.90;;;;;;5002491;28;25155;-75
2022/09/16 02:59:56;;;;;;;4.85;0.75;;;14.30;99.90;;;;;;5005578;28;25065;-75
2022/09/16 03:02:22;;;;;;;2.28;0.60;;;14.40;99.90;;;;;;4995170;28;25056;-75
2022/09/16 03:04:48;;;;;;;1.00;0.30;;;14.30;99.90;;;;;;4987838;28;25081;-75
2022/09/16 03:07:15;;;;;;;4.60;1.60;;;14.00;99.90;;;;;;5001075;28;25055;-74
2022/09/16 03:09:43;;;;;;;1.52;0.55;;;13.90;99.90;;;;;;4981417;28;25078;-74
2022/09/16 03:12:11;;;;;;;2.67;0.60;;;13.80;99.90;;;;;;4998400;28;25083;-74
2022/09/16 03:15:10;;;;;;;5.05;0.90;;;13.90;99.90;;;;;;4997369;28;25067;-74
2022/09/16 03:17:57;;;;;;;6.22;0.73;;;13.80;99.90;;;;;;4984351;28;25055;-74
2022/09/16 03:20:32;;;;;;;2.75;0.65;;;13.80;99.90;;;;;;4984176;28;25121;-73
2022/09/16 03:23:20;;;;;;;6.50;1.08;;;13.70;99.90;;;;;;4993284;28;25069;-73
2022/09/16 03:26:01;;;;;;;11.48;1.25;;;13.70;99.90;;;;;;4998123;28;25065;-74
2022/09/16 03:28:53;;;;;;;5.28;0.80;;;13.70;99.90;;;;;;4991786;28;25079;-74
2022/09/16 03:31:38;;;;;;;6.78;1.08;;;13.50;99.90;;;;;;4991276;28;25109;-74
2022/09/16 03:34:26;;;;;;;2.47;0.50;;;13.50;99.90;;;;;;4992020;28;25114;-73
2022/09/16 03:37:14;;;;;;;3.30;0.47;;;13.50;99.90;;;;;;4991473;28;25096;-74
2022/09/16 03:39:40;;;;;;;2.63;0.73;;;13.40;99.90;;;;;;5002548;28;25054;-74
2022/09/16 03:42:10;;;;;;;6.20;0.77;;;13.40;99.90;;;;;;5000286;28;25070;-74
2022/09/16 03:44:39;;;;;;;1.13;0.70;;;13.30;99.90;;;;;;4995432;28;25065;-74
2022/09/16 03:47:09;;;;;;;4.65;1.55;;;13.30;99.90;;;;;;5004851;28;25068;-74
2022/09/16 03:49:35;;;;;;;3.58;0.63;;;13.20;99.90;;;;;;5009040;28;25166;-73
2022/09/16 03:52:03;;;;;;;5.18;0.57;;;13.30;99.90;;;;;;5004671;28;25075;-73
2022/09/16 03:54:29;;;;;;;2.22;0.70;;;13.30;99.90;;;;;;5006236;28;25078;-74
2022/09/16 03:56:54;;;;;;;1.95;0.40;;;13.50;99.90;;;;;;4994408;28;25144;-73
2022/09/16 03:59:20;;;;;;;4.25;0.75;;;13.60;99.90;;;;;;4988958;28;25116;-73
2022/09/16 04:01:46;;;;;;;4.40;0.40;;;13.50;99.90;;;;;;4966289;28;25059;-74
2022/09/16 04:04:12;;;;;;;4.15;0.90;;;13.50;99.90;;;;;;4987216;28;25138;-74
2022/09/16 04:06:38;;;;;;;2.75;0.75;;;13.40;99.90;;;;;;4990987;28;25074;-73
2022/09/16 04:09:05;;;;;;;1.88;0.50;;;13.50;99.90;;;;;;4999226;28;25084;-73
2022/09/16 04:11:31;;;;;;;5.13;1.17;;;13.60;99.90;;;;;;4977865;28;25048;-73
2022/09/16 04:13:57;;;;;;;1.40;1.00;;;13.60;99.90;;;;;;4998230;28;25069;-74
2022/09/16 04:16:24;;;;;;;2.50;0.80;;;13.80;99.90;;;;;;4977330;28;25060;-72
2022/09/16 04:18:49;;;;;;;2.88;0.50;;;14.00;99.90;;;;;;4999166;28;25140;-73
2022/09/16 04:21:15;;;;;;;3.65;0.93;;;14.00;99.90;;;;;;4993787;28;25078;-75
2022/09/16 04:23:41;;;;;;;6.57;2.25;;;14.10;99.90;;;;;;5001872;28;25063;-72
2022/09/16 04:26:06;;;;;;;3.85;0.80;;;14.00;99.90;;;;;;4991409;28;25173;-73
2022/09/16 04:28:33;;;;;;;2.95;0.90;;;13.80;99.90;;;;;;4989867;28;25166;-74
2022/09/16 04:31:03;;;;;;;2.63;0.70;;;13.80;99.90;;;;;;4990770;28;25063;-75
2022/09/16 04:33:30;;;;;;;2.95;0.73;;;13.90;99.90;;;;;;4988627;28;25096;-76
2022/09/16 04:36:08;;;;;;;5.05;0.85;;;14.00;99.90;;;;;;4983957;28;25076;-76
2022/09/16 04:38:35;;;;;;;1.73;0.60;;;14.10;99.90;;;;;;4986388;28;25461;-76
2022/09/16 04:41:02;;;;;;;2.55;0.95;;;13.90;99.90;;;;;;4980545;28;25078;-75
2022/09/16 04:43:28;;;;;;;3.53;1.15;;;13.90;99.90;;;;;;4966754;28;25091;-76
2022/09/16 04:45:54;;;;;;;8.45;1.00;;;14.00;99.90;;;;;;4981743;28;25177;-76
2022/09/16 04:48:19;;;;;;;1.83;0.68;;;14.00;99.90;;;;;;4993920;28;25062;-77
2022/09/16 04:50:45;;;;;;;6.28;0.98;;;14.00;99.90;;;;;;4989751;28;25139;-77
2022/09/16 04:53:10;;;;;;;1.50;1.25;;;13.90;99.90;;;;;;4986723;28;25083;-77
2022/09/16 04:55:36;;;;;;;3.40;0.70;;;13.90;99.90;;;;;;4988797;28;25062;-77
2022/09/16 04:58:02;;;;;;;1.55;0.50;;;14.00;99.90;;;;;;4977363;28;25143;-76
2022/09/16 05:00:27;;;;;;;5.00;0.60;;;14.00;99.90;;;;;;4988614;28;25072;-76
2022/09/16 05:02:53;;;;;;;1.00;0.68;;;13.80;99.90;;;;;;4998125;28;25081;-76
2022/09/16 05:05:20;;;;;;;1.90;0.40;;;13.80;99.90;;;;;;4983891;28;25173;-75
2022/09/16 05:07:46;;;;;;;3.25;0.70;;;13.70;99.90;;;;;;4984545;28;25053;-76
2022/09/16 05:10:12;;;;;;;5.13;1.83;;;13.70;99.90;;;;;;4994012;28;25148;-76
2022/09/16 05:12:37;;;;;;;3.20;0.95;;;13.80;99.90;;;;;;4973931;28;25077;-79
2022/09/16 05:15:04;;;;;;;2.22;0.98;;;13.80;99.90;;;;;;4994791;28;25155;-77
2022/09/16 05:17:30;;;;;;;4.25;0.90;;;13.80;99.90;;;;;;4997826;28;25067;-79
2022/09/16 05:19:57;;;;;;;2.78;1.00;;;13.90;99.90;;;;;;4988302;28;25083;-78
2022/09/16 05:22:22;;;;;;;4.50;1.25;;;13.80;99.90;;;;;;4998689;28;25082;-81
2022/09/16 05:24:48;;;;;;;4.07;1.15;;;13.70;99.90;;;;;;4978525;28;25208;-78
2022/09/16 05:27:14;;;;;;;3.05;0.98;;;13.90;99.90;;;;;;4994815;28;25094;-77
2022/09/16 05:29:40;;;;;;;1.35;0.70;;;13.90;99.90;;;;;;4997758;28;25156;-77
2022/09/16 05:32:06;;;;;;;7.43;1.17;;;13.80;99.90;;;;;;4980948;28;25166;-79
2022/09/16 05:34:34;;;;;;;4.43;0.80;;;13.90;99.90;;;;;;4990184;28;25063;-78
2022/09/16 05:37:00;;;;;;;6.25;1.15;;;14.00;99.90;;;;;;4987597;28;25109;-77
2022/09/16 05:39:26;;;;;;;4.20;1.10;;;14.00;99.90;;;;;;4993736;28;25154;-77
2022/09/16 05:41:57;;;;;;;3.95;1.10;;;14.00;99.90;;;;;;4999037;28;25078;-78
2022/09/16 05:44:24;;;;;;;4.07;1.20;;;14.00;99.90;;;;;;4971759;28;25078;-77
2022/09/16 05:46:50;;;;;;;4.60;1.10;;;14.00;99.90;;;;;;4978910;28;25057;-78
2022/09/16 05:49:19;;;;;;;3.40;1.05;;;14.00;99.90;;;;;;4998061;28;25085;-77
2022/09/16 05:51:46;;;;;;;2.75;0.95;;;14.00;99.90;;;;;;4998217;28;25054;-77
2022/09/16 05:54:12;;;;;;;4.43;1.48;;;13.90;99.90;;;;;;4998816;28;25049;-78
2022/09/16 05:56:38;;;;;;;2.70;1.30;;;13.90;99.90;;;;;;5000230;28;25123;-78
2022/09/16 05:59:04;;;;;;;5.60;1.08;;;14.10;99.90;;;;;;5000925;28;25059;-79
2022/09/16 06:01:34;;;;;;;4.70;1.10;;;14.10;99.90;;;;;;5002246;28;25074;-78
2022/09/16 06:04:02;;;;;;;6.80;0.90;;;14.10;99.90;;;;;;4999360;28;25073;-80
2022/09/16 06:06:30;;;;;;;4.95;1.15;;;14.20;99.90;;;;;;5003070;28;25167;-79
2022/09/16 06:08:58;;;;;;;5.18;1.33;;;14.20;99.90;;;;;;4997337;28;25112;-78
2022/09/16 06:11:25;;;;;;;2.08;0.88;;;14.30;99.90;;;;;;5000564;28;25087;-79
2022/09/16 06:14:00;;;;;;;5.38;1.50;;;14.40;99.90;;;;;;4995130;28;25138;-78
2022/09/16 06:16:27;;;;;;;5.05;1.33;;;14.40;99.90;;;;;;4994969;28;25097;-78
2022/09/16 06:18:54;;;;;;;3.17;1.05;;;14.40;99.90;;;;;;4997371;28;25075;-77
2022/09/16 06:21:20;;;;;;;7.63;1.60;;;14.40;99.90;;;;;;4995207;28;25132;-76
2022/09/16 06:23:45;;;;;;;4.80;1.30;;;14.20;99.90;;;;;;4997267;28;25052;-77
2022/09/16 06:26:15;;;;;;;5.60;1.40;;;14.10;99.90;;;;;;4995483;28;25062;-78
2022/09/16 06:28:41;;;;;;;3.35;1.30;;;14.20;99.90;;;;;;4994815;28;25145;-78
2022/09/16 06:31:10;;;;;;;4.88;1.30;;;14.30;99.90;;;;;;4999377;28;25120;-76
2022/09/16 06:33:36;;;;;;;13.57;1.83;;;14.30;99.90;;;;;;5005686;28;25076;-79
2022/09/16 06:36:13;;;;;;;7.97;1.48;;;14.20;99.90;;;;;;4993994;28;25083;-75
2022/09/16 06:38:39;;;;;;;6.28;1.38;;;14.10;99.90;;;;;;5000199;28;25062;-77
2022/09/16 06:41:07;;;;;;;4.28;1.30;;;13.90;99.90;;;;;;4999544;28;25060;-76
2022/09/16 06:43:34;;;;;;;4.68;1.40;;;13.80;99.90;;;;;;5000457;28;25066;-76
2022/09/16 06:46:17;;;;;;;5.90;0.75;;;13.90;99.90;;;;;;4996937;28;25054;-74
2022/09/16 06:48:49;;;;;;;2.17;0.75;;;13.80;99.90;;;;;;4991136;28;25071;-74
2022/09/16 06:51:18;;;;;;;2.70;0.40;;;13.40;99.90;;;;;;4982762;28;25067;-77
2022/09/16 06:53:44;;;;;;;4.05;0.60;;;13.20;99.90;;;;;;5001538;28;25079;-77
2022/09/16 06:56:12;;;;;;;2.85;0.40;;;13.10;99.90;;;;;;5000334;28;25097;-76
2022/09/16 06:58:40;;;;;;;6.00;0.90;;;13.10;99.90;;;;;;4998620;28;25080;-76
2022/09/16 07:01:08;;;;;;;4.53;0.70;;;13.10;99.90;;;;;;5004616;28;25113;-75
2022/09/16 07:03:37;;;;;;;3.65;0.70;;;13.30;99.90;;;;;;5005412;28;25077;-75
2022/09/16 07:06:03;;;;;;;7.82;0.75;;;13.30;99.90;;;;;;4997494;28;25094;-75
2022/09/16 07:08:31;;;;;;;1.63;0.52;;;13.30;99.90;;;;;;5002334;28;25163;-75
2022/09/16 07:11:02;;;;;;;5.95;0.82;;;13.20;99.90;;;;;;4998905;28;25127;-76
2022/09/16 07:13:28;;;;;;;1.63;0.70;;;13.30;99.90;;;;;;5005949;28;25094;-77
2022/09/16 07:15:59;;;;;;;3.22;0.47;;;13.10;99.90;;;;;;5003150;28;25103;-75
2022/09/16 07:18:24;;;;;;;0.82;0.30;;;13.20;99.90;;;;;;5002005;28;25105;-75
2022/09/16 07:20:50;;;;;;;0.88;0.55;;;13.40;99.90;;;;;;5001604;28;25158;-75
2022/09/16 07:23:16;;;;;;;1.45;0.45;;;13.30;99.90;;;;;;5011635;28;25086;-75
2022/09/16 07:25:41;;;;;;;0.93;0.40;;;13.40;99.90;;;;;;5003368;28;25093;-75
2022/09/16 07:28:07;;;;;;;4.50;0.60;;;13.40;99.90;;;;;;5001362;28;25080;-74
2022/09/16 07:30:33;;;;;;;1.13;0.57;;;13.50;99.90;;;;;;5004738;28;25075;-75
2022/09/16 07:32:59;;;;;;;5.78;0.65;;;13.60;99.90;;;;;;4983231;28;25048;-75
2022/09/16 07:35:25;;;;;;;3.85;0.50;;;13.80;99.90;;;;;;5004495;28;25050;-76
2022/09/16 07:37:50;;;;;;;2.25;0.52;;;14.00;99.90;;;;;;5004923;28;25068;-76
2022/09/16 07:40:17;;;;;;;2.30;0.40;;;14.20;99.90;;;;;;4996153;28;25157;-75
2022/09/16 07:42:43;;;;;;;3.72;1.00;;;14.40;99.90;;;;;;4993722;28;25163;-76
2022/09/16 07:45:08;;;;;;;2.58;0.52;;;14.60;99.90;;;;;;4994342;28;25078;-77
2022/09/16 07:47:34;;;;;;;2.50;0.50;;;14.70;99.90;;;;;;4998289;28;25071;-75
2022/09/16 07:50:00;;;;;;;4.53;0.73;;;14.50;99.90;;;;;;4998172;28;25090;-76
2022/09/16 07:52:28;;;;;;;9.23;0.70;;;14.20;99.90;;;;;;4995034;28;25068;-74
2022/09/16 07:54:57;;;;;;;1.27;0.70;;;14.00;99.90;;;;;;4977920;28;25124;-76
2022/09/16 07:57:23;;;;;;;6.10;0.70;;;13.60;99.90;;;;;;4998860;28;25135;-78
2022/09/16 07:59:49;;;;;;;4.53;1.23;;;13.60;99.90;;;;;;4999184;28;25143;-75
2022/09/16 08:02:15;;;;;;;1.58;0.73;;;13.70;99.90;;;;;;4997272;28;25056;-76
2022/09/16 08:04:41;;;;;;;2.88;0.60;;;13.70;99.90;;;;;;4991007;28;25099;-76
2022/09/16 08:07:07;;;;;;;4.07;0.40;;;13.50;99.90;;;;;;4976474;28;25111;-76
2022/09/16 08:09:32;;;;;;;8.23;0.65;;;13.40;99.90;;;;;;4993945;28;25129;-76
2022/09/16 08:12:00;;;;;;;1.42;0.65;;;13.40;99.90;;;;;;4997268;28;25081;-76
2022/09/16 08:14:26;;;;;;;1.60;1.00;;;13.50;99.90;;;;;;4999025;28;25049;-76
2022/09/16 08:16:51;;;;;;;3.83;0.45;;;13.70;99.90;;;;;;4995817;28;25128;-76
2022/09/16 08:19:18;;;;;;;1.85;0.60;;;13.80;99.90;;;;;;5006099;28;25074;-76
2022/09/16 08:21:43;;;;;;;2.03;0.60;;;13.80;99.90;;;;;;5000774;28;25079;-77
2022/09/16 08:24:09;;;;;;;4.65;0.60;;;14.10;99.90;;;;;;5005719;28;25075;-77
2022/09/16 08:26:35;;;;;;;1.55;0.45;;;14.20;99.90;;;;;;5002231;28;25065;-77
2022/09/16 08:29:00;;;;;;;7.13;0.73;;;14.30;99.90;;;;;;4997237;28;25059;-77
2022/09/16 08:31:26;;;;;;;3.00;0.50;;;14.20;99.90;;;;;;4993439;28;25079;-76
2022/09/16 08:33:52;;;;;;;1.95;0.88;;;14.10;99.90;;;;;;5001985;28;25056;-75
2022/09/16 08:36:21;;;;;;;2.28;0.40;;;14.40;99.90;;;;;;4992126;28;25150;-76
2022/09/16 08:38:48;;;;;;;3.17;0.75;;;14.40;99.90;;;;;;5001590;28;25076;-77
2022/09/16 08:41:51;;;;;;;2.72;0.60;;;15.00;99.90;;;;;;5000407;28;25146;-76
2022/09/16 08:44:34;;;;;;;3.35;0.98;;;15.30;99.90;;;;;;4987991;28;25061;-70
2022/09/16 08:47:07;;;;;;;1.10;0.65;;;15.10;99.90;;;;;;4996277;28;25055;-76
2022/09/16 08:49:36;;;;;;;3.40;0.50;;;15.20;99.90;;;;;;4999245;28;25135;-75
2022/09/16 08:52:09;;;;;;;5.13;1.13;;;15.00;99.90;;;;;;5002523;28;25066;-72
2022/09/16 08:54:54;;;;;;;7.43;1.17;;;14.60;99.90;;;;;;4994064;28;25102;-73
2022/09/16 08:57:23;;;;;;;5.88;1.50;;;14.20;99.90;;;;;;5000108;28;25071;-74
2022/09/16 08:59:54;;;;;;;4.50;1.02;;;14.00;99.90;;;;;;4993685;28;25078;-77
2022/09/16 09:02:33;;;;;;;3.45;1.05;;;14.00;99.90;;;;;;4984063;28;25074;-77
2022/09/16 09:05:01;;;;;;;7.32;1.05;;;13.90;99.90;;;;;;4989812;28;25065;-74
2022/09/16 09:07:47;;;;;;;1.65;0.70;;;13.90;99.90;;;;;;4990591;28;25071;-78
2022/09/16 09:10:23;;;;;;;4.35;1.20;;;14.00;99.90;;;;;;4999891;28;25083;-78
2022/09/16 09:13:19;;;;;;;4.07;1.15;;;14.00;99.90;;;;;;4982027;28;25108;-77
2022/09/16 09:15:59;;;;;;;2.33;0.98;;;14.10;99.90;;;;;;4994033;28;25062;-76
2022/09/16 09:18:47;;;;;;;10.98;1.00;;;14.30;99.90;;;;;;4995096;28;25055;-75
2022/09/16 09:21:25;;;;;;;6.43;1.02;;;14.10;99.90;;;;;;4994378;28;25187;-76
2022/09/16 09:24:00;;;;;;;5.38;1.17;;;14.20;99.90;;;;;;5001246;28;25059;-76
2022/09/16 09:26:43;;;;;;;3.17;0.65;;;14.20;99.90;;;;;;4990590;28;25147;-75
2022/09/16 09:29:14;;;;;;;0.88;0.60;;;14.10;99.90;;;;;;4993780;28;25106;-76
2022/09/16 09:31:58;;;;;;;5.00;0.60;;;14.30;99.90;;;;;;4995979;28;25075;-76
2022/09/16 09:34:30;;;;;;;4.95;0.70;;;14.00;99.90;;;;;;4998985;28;25164;-77
2022/09/16 09:37:20;;;;;;;1.55;0.55;;;14.00;99.90;;;;;;4987019;28;25145;-77
2022/09/16 09:39:52;;;;;;;4.55;0.80;;;13.80;99.90;;;;;;4997297;28;25080;-77
2022/09/16 09:42:24;;;;;;;1.35;0.65;;;13.70;99.90;;;;;;5006486;28;25077;-75
2022/09/16 09:45:04;;;;;;;0.65;0.43;;;13.60;99.90;;;;;;5006245;28;25082;-74
2022/09/16 09:47:39;;;;;;;2.50;0.60;;;13.60;99.90;;;;;;5005619;28;25155;-76
2022/09/16 09:50:35;;;;;;;0.30;0.30;;;13.60;99.90;;;;;;4999770;28;25082;-77
2022/09/16 09:53:12;;;;;;;4.47;0.40;;;13.60;99.90;;;;;;4999941;28;25057;-76
2022/09/16 09:55:40;;;;;;;4.15;0.60;;;13.60;99.90;;;;;;5002666;28;25059;-75
2022/09/16 09:58:29;;;;;;;2.95;0.50;;;13.80;99.90;;;;;;5005123;28;25111;-76
2022/09/16 10:00:57;;;;;;;3.25;1.48;;;13.70;99.90;;;;;;4993402;28;25091;-76
2022/09/16 10:03:23;;;;;;;2.80;0.77;;;13.70;99.90;;;;;;4980531;28;25073;-76
2022/09/16 10:05:49;;;;;;;1.83;0.63;;;13.70;99.90;;;;;;4995389;28;25076;-75
2022/09/16 10:08:41;;;;;;;5.50;0.70;;;13.60;99.90;;;;;;4999266;28;25080;-75
2022/09/16 10:11:23;;;;;;;6.72;0.90;;;13.60;99.90;;;;;;4985932;28;25085;-73
2022/09/16 10:13:52;;;;;;;5.63;0.70;;;13.60;99.90;;;;;;4996337;28;25159;-75
2022/09/16 10:16:21;;;;;;;3.30;0.40;;;13.70;99.90;;;;;;4982805;28;25043;-75
2022/09/16 10:19:16;;;;;;;1.75;0.70;;;13.70;99.90;;;;;;4977614;28;25096;-76
2022/09/16 10:21:48;;;;;;;5.10;0.77;;;13.90;99.90;;;;;;4999951;28;25056;-76
2022/09/16 10:24:37;;;;;;;3.72;0.50;;;14.10;99.90;;;;;;4986393;28;25056;-76
2022/09/16 10:27:23;;;;;;;3.05;0.60;;;14.10;99.90;;;;;;4989548;28;25070;-76
2022/09/16 10:30:06;;;;;;;3.65;1.83;;;14.10;99.90;;;;;;4998465;28;25094;-77
2022/09/16 10:32:38;;;;;;;3.45;0.70;;;14.40;99.90;;;;;;4991817;28;25068;-76
2022/09/16 10:35:08;;;;;;;2.17;0.60;;;14.50;99.90;;;;;;4990969;28;25124;-76
2022/09/16 10:37:33;;;;;;;5.32;0.50;;;14.60;99.90;;;;;;4988141;28;25082;-78
2022/09/16 10:40:00;;;;;;;4.30;0.63;;;14.60;99.90;;;;;;4996443;28;25064;-74
2022/09/16 10:42:30;;;;;;;3.25;0.70;;;14.70;99.90;;;;;;5002985;28;25068;-76
2022/09/16 10:45:13;;;;;;;2.05;0.77;;;14.60;99.90;;;;;;4998148;28;25067;-75
2022/09/16 10:47:39;;;;;;;3.45;0.93;;;14.80;99.90;;;;;;5009674;28;25119;-75
2022/09/16 10:50:06;;;;;;;6.32;0.90;;;14.70;99.90;;;;;;5000371;28;25075;-74
2022/09/16 10:52:41;;;;;;;3.42;0.88;;;14.60;99.90;;;;;;5011968;28;25058;-77
2022/09/16 10:55:19;;;;;;;1.30;0.40;;;15.10;99.90;;;;;;5009415;28;25084;-75
2022/09/16 10:57:45;;;;;;;1.75;0.52;;;15.00;99.90;;;;;;5011713;28;25084;-76
2022/09/16 11:00:23;;;;;;;2.10;0.55;;;14.80;99.90;;;;;;5011674;28;25063;-75
2022/09/16 11:03:06;;;;;;;1.95;0.30;;;14.60;99.90;;;;;;5015706;28;25105;-75
2022/09/16 11:05:51;;;;;;;3.67;0.82;;;14.60;99.90;;;;;;5019632;28;25062;-73
2022/09/16 11:08:35;;;;;;;7.32;0.90;;;14.40;99.90;;;;;;5013196;28;25051;-75
2022/09/16 11:11:22;;;;;;;4.22;0.60;;;14.60;99.90;;;;;;5020353;28;25055;-77
2022/09/16 11:13:59;;;;;;;7.07;0.85;;;15.00;99.90;;;;;;5029740;28;25050;-78
2022/09/16 11:16:43;;;;;;;16.05;1.33;;;15.10;99.90;;;;;;5028122;28;25050;-77
2022/09/16 11:19:22;;;;;;;3.10;0.68;;;15.20;99.90;;;;;;5021149;28;25059;-78
2022/09/16 11:22:03;;;;;;;4.13;0.82;;;15.40;99.90;;;;;;5020930;28;25089;-76
2022/09/16 11:24:58;;;;;;;7.35;1.42;;;15.40;99.90;;;;;;4990293;28;25094;-77
2022/09/16 11:27:38;;;;;;;4.68;1.00;;;15.30;99.90;;;;;;4998024;28;25062;-75
2022/09/16 11:30:15;;;;;;;5.75;0.60;;;14.80;99.90;;;;;;4997479;28;25106;-74
2022/09/16 11:33:31;;;;;;;4.93;0.70;;;14.90;99.90;;;;;;4995343;28;25057;-74
2022/09/16 11:36:21;;;;;;;4.13;0.60;;;15.30;99.90;;;;;;4914735;29;25176;-77
2022/09/16 11:39:11;;;;;;;2.75;0.60;;;16.00;99.90;;;;;;4929426;29;25117;-75
2022/09/16 11:41:49;;;;;;;3.53;0.65;;;16.40;99.90;;;;;;4992842;28;25103;-74
2022/09/16 11:44:14;;;;;;;2.05;0.65;;;16.10;99.90;;;;;;5009406;28;25164;-74
2022/09/16 11:46:55;;;;;;;3.58;0.70;;;16.40;99.90;;;;;;5005405;28;25115;-75
2022/09/16 11:49:59;;;;;;;1.23;0.45;;;16.40;99.90;;;;;;4983360;28;25083;-74
2022/09/16 11:52:57;;;;;;;4.00;0.60;;;15.60;99.90;;;;;;4990721;28;25080;-76
2022/09/16 11:55:54;;;;;;;3.47;0.55;;;15.20;99.90;;;;;;4990891;28;25050;-75
2022/09/16 11:58:37;;;;;;;2.22;0.57;;;15.20;99.90;;;;;;5001066;28;25060;-74
2022/09/16 12:01:22;;;;;;;3.13;0.95;;;15.20;99.90;;;;;;4997980;28;25069;-74
2022/09/16 12:03:54;;;;;;;3.40;0.80;;;15.80;99.90;;;;;;4996207;28;25138;-75
2022/09/16 12:06:26;;;;;;;2.28;0.68;;;16.70;99.90;;;;;;5000384;28;25129;-75
2022/09/16 12:09:15;;;;;;;2.67;0.80;;;15.10;99.90;;;;;;5005037;28;25071;-75
2022/09/16 12:11:49;;;;;;;2.83;1.00;;;14.50;99.90;;;;;;4997826;28;25079;-76
2022/09/16 12:14:39;;;;;;;3.40;0.80;;;14.00;99.90;;;;;;4997737;28;25161;-73
2022/09/16 12:17:13;;;;;;;0.88;0.60;;;13.70;99.90;;;;;;5000233;28;25155;-74
2022/09/16 12:19:51;;;;;;;3.88;0.63;;;13.50;99.90;;;;;;5001403;28;25073;-74
2022/09/16 12:22:25;;;;;;;5.78;0.50;;;13.60;99.90;;;;;;4996953;28;25130;-75
2022/09/16 12:25:08;;;;;;;4.85;0.68;;;13.60;99.90;;;;;;5003980;28;25132;-76
2022/09/16 12:27:48;;;;;;;5.28;1.00;;;13.80;99.90;;;;;;4994575;28;25163;-73
2022/09/16 12:30:17;;;;;;;3.88;0.68;;;13.80;99.90;;;;;;4997449;28;25058;-74
2022/09/16 12:33:02;;;;;;;4.68;0.90;;;13.50;99.90;;;;;;4972895;28;25069;-76
2022/09/16 12:35:43;;;;;;;9.30;0.95;;;13.40;99.90;;;;;;4991992;28;25055;-75
2022/09/16 12:38:15;;;;;;;2.47;1.45;;;13.40;99.90;;;;;;4991672;28;25071;-75
2022/09/16 12:40:58;;;;;;;6.25;2.15;;;13.60;99.90;;;;;;4993403;28;25080;-76
2022/09/16 12:43:41;;;;;;;3.80;0.90;;;14.10;99.90;;;;;;4988153;28;25142;-76
2022/09/16 12:46:30;;;;;;;5.75;1.20;;;14.40;99.90;;;;;;4995888;28;25124;-75
2022/09/16 12:49:12;;;;;;;4.53;0.93;;;14.20;99.90;;;;;;4999792;28;25103;-75
2022/09/16 12:51:40;;;;;;;6.82;1.42;;;14.20;99.90;;;;;;5001754;28;25141;-77
2022/09/16 12:54:28;;;;;;;5.75;1.38;;;14.30;99.90;;;;;;4987453;28;25097;-78
2022/09/16 12:57:03;;;;;;;8.98;1.48;;;14.40;99.90;;;;;;4998847;28;25122;-77
2022/09/16 12:59:50;;;;;;;4.20;1.13;;;15.00;99.90;;;;;;4991439;28;25158;-75
2022/09/16 13:02:21;;;;;;;2.80;0.80;;;15.10;99.90;;;;;;4997950;28;25152;-74
2022/09/16 13:04:53;;;;;;;7.00;1.00;;;15.30;99.90;;;;;;4998783;28;25070;-75
2022/09/16 13:07:28;;;;;;;2.13;1.08;;;15.10;99.90;;;;;;5000048;28;25071;-76
2022/09/16 13:10:01;;;;;;;5.68;1.02;;;14.60;99.90;;;;;;5003773;28;25130;-75
2022/09/16 13:12:28;;;;;;;2.35;0.80;;;14.60;99.90;;;;;;4962626;28;25070;-74
2022/09/16 13:15:03;;;;;;;6.63;1.75;;;14.90;99.90;;;;;;4988928;28;25159;-75
2022/09/16 13:17:36;;;;;;;1.38;0.30;;;14.70;99.90;;;;;;4996281;28;25084;-73
2022/09/16 13:20:24;;;;;;;5.80;0.90;;;14.60;99.90;;;;;;5004598;28;25144;-76